createdAt,value
2019-03-15T00:00:35.263Z,99166.20
2019-03-15T00:03:10.842Z,99170.84
2019-03-15T00:05:44.483Z,99172.22
2019-03-15T00:08:18.478Z,99172.13
2019-03-15T00:10:52.501Z,99169.26
2019-03-15T00:13:26.444Z,99169.64
2019-03-15T00:16:00.293Z,99179.77
2019-03-15T00:18:33.996Z,99180.04
2019-03-15T00:21:08.259Z,99188.06
2019-03-15T00:23:41.905Z,99199.45
2019-03-15T00:26:15.937Z,99192.43
2019-03-15T00:28:49.521Z,99205.29
2019-03-15T00:31:27.245Z,99214.42
2019-03-15T00:34:03.497Z,99212.28
2019-03-15T00:36:37.232Z,99209.56
2019-03-15T00:39:10.855Z,99208.22
2019-03-15T00:41:44.496Z,99206.02
2019-03-15T00:44:18.615Z,99206.22
2019-03-15T00:46:52.779Z,99206.38
2019-03-15T00:49:26.456Z,99213.02
2019-03-15T00:52:01.714Z,99216.33
2019-03-15T00:54:35.713Z,99217.11
2019-03-15T00:57:10.461Z,99220.36
2019-03-15T00:59:44.500Z,99223.47
2019-03-15T01:02:18.469Z,99228.09
2019-03-15T01:04:53.286Z,99229.59
2019-03-15T01:07:28.284Z,99231.58
2019-03-15T01:10:02.034Z,99238.58
2019-03-15T01:12:35.786Z,99239.27
2019-03-15T01:15:09.754Z,99238.08
2019-03-15T01:17:44.984Z,99242.88
2019-03-15T01:20:19.713Z,99240.77
2019-03-15T01:22:53.352Z,99243.34
2019-03-15T01:25:27.368Z,99244.45
2019-03-15T01:28:02.363Z,99238.60
2019-03-15T01:30:36.292Z,99241.00
2019-03-15T01:33:09.974Z,99238.08
2019-03-15T01:35:44.721Z,99238.59
2019-03-15T01:38:19.440Z,99243.42
2019-03-15T01:40:53.153Z,99249.98
2019-03-15T01:43:27.928Z,99249.28
2019-03-15T01:46:01.829Z,99245.94
2019-03-15T01:48:36.743Z,99251.77
2019-03-15T01:51:10.625Z,99258.70
2019-03-15T01:53:46.688Z,99242.55
2019-03-15T01:56:20.401Z,99257.39
2019-03-15T01:58:54.220Z,99256.72
2019-03-15T02:01:28.519Z,99260.49
2019-03-15T02:04:02.189Z,99260.11
2019-03-15T02:06:35.958Z,99258.71
2019-03-15T02:09:10.116Z,99272.41
2019-03-15T02:11:43.791Z,99270.63
2019-03-15T02:14:17.663Z,99272.97
2019-03-15T02:16:51.491Z,99280.52
2019-03-15T02:19:28.827Z,99274.12
2019-03-15T02:22:02.965Z,99285.41
2019-03-15T02:24:36.800Z,99284.80
2019-03-15T02:27:10.486Z,99283.31
2019-03-15T02:29:44.177Z,99278.16
2019-03-15T02:32:17.826Z,99290.30
2019-03-15T02:34:51.647Z,99293.61
2019-03-15T02:37:25.931Z,99292.87
2019-03-15T02:40:02.501Z,99305.81
2019-03-15T02:42:36.775Z,99309.41
2019-03-15T02:45:12.567Z,99298.09
2019-03-15T02:47:46.851Z,99308.48
2019-03-15T02:50:21.687Z,99300.66
2019-03-15T02:52:55.628Z,99302.13
2019-03-15T02:55:29.450Z,99311.73
2019-03-15T02:58:04.584Z,99311.64
2019-03-15T03:00:38.291Z,99317.79
2019-03-15T03:03:13.308Z,99315.04
2019-03-15T03:05:47.162Z,99325.98
2019-03-15T03:08:21.031Z,99315.47
2019-03-15T03:10:56.105Z,99314.19
2019-03-15T03:13:31.112Z,99324.23
2019-03-15T03:16:07.267Z,99327.15
2019-03-15T03:18:40.877Z,99328.65
2019-03-15T03:21:15.898Z,99333.30
2019-03-15T03:23:49.713Z,99332.22
2019-03-15T03:26:24.414Z,99333.81
2019-03-15T03:28:58.233Z,99332.86
2019-03-15T03:31:31.956Z,99329.09
2019-03-15T03:34:05.858Z,99335.83
2019-03-15T03:36:39.775Z,99328.41
2019-03-15T03:39:13.479Z,99336.30
2019-03-15T03:41:47.226Z,99354.63
2019-03-15T03:44:23.097Z,99346.08
2019-03-15T03:46:56.912Z,99349.12
2019-03-15T03:49:31.806Z,99355.13
2019-03-15T03:52:05.731Z,99350.63
2019-03-15T03:54:39.583Z,99349.48
2019-03-15T03:57:13.219Z,99348.62
2019-03-15T03:59:47.028Z,99345.83
2019-03-15T04:02:20.905Z,99350.21
2019-03-15T04:04:56.437Z,99337.16
2019-03-15T04:07:30.500Z,99342.52
2019-03-15T04:10:05.677Z,99346.69
2019-03-15T04:12:39.562Z,99358.53
2019-03-15T04:15:13.622Z,99347.38
2019-03-15T04:17:47.716Z,99344.45
2019-03-15T04:20:21.455Z,99356.90
2019-03-15T04:22:56.808Z,99357.07
2019-03-15T04:25:31.677Z,99357.64
2019-03-15T04:28:05.274Z,99361.50
2019-03-15T04:30:39.051Z,99365.45
2019-03-15T04:33:12.841Z,99367.03
2019-03-15T04:35:48.512Z,99370.34
2019-03-15T04:38:22.318Z,99368.92
2019-03-15T04:40:56.197Z,99374.45
2019-03-15T04:43:31.118Z,99374.45
2019-03-15T04:46:04.889Z,99378.53
2019-03-15T04:48:38.945Z,99381.84
2019-03-15T04:51:14.128Z,99379.09
2019-03-15T04:53:49.666Z,99385.63
2019-03-15T04:56:23.430Z,99390.09
2019-03-15T04:58:58.316Z,99396.74
2019-03-15T05:01:32.014Z,99399.41
2019-03-15T05:04:07.186Z,99385.31
2019-03-15T05:06:42.185Z,99390.69
2019-03-15T05:09:15.880Z,99393.27
2019-03-15T05:11:49.700Z,99399.66
2019-03-15T05:14:26.329Z,99406.63
2019-03-15T05:17:03.148Z,99397.31
2019-03-15T05:19:39.125Z,99399.19
2019-03-15T05:22:14.551Z,99394.04
2019-03-15T05:24:49.266Z,99394.94
2019-03-15T05:27:22.968Z,99389.79
2019-03-15T05:29:58.638Z,99398.17
2019-03-15T05:32:33.284Z,99397.39
2019-03-15T05:35:07.780Z,99393.70
2019-03-15T05:37:42.037Z,99398.72
2019-03-15T05:40:15.914Z,99390.87
2019-03-15T05:42:49.721Z,99385.63
2019-03-15T05:45:23.809Z,99391.26
2019-03-15T05:47:57.904Z,99389.66
2019-03-15T05:50:31.840Z,99395.50
2019-03-15T05:53:05.430Z,99389.49
2019-03-15T05:55:39.040Z,99397.31
2019-03-15T05:58:13.004Z,99404.00
2019-03-15T06:00:46.652Z,99406.11
2019-03-15T06:03:20.740Z,99402.84
2019-03-15T06:05:54.500Z,99392.28
2019-03-15T06:08:28.247Z,99381.89
2019-03-15T06:11:02.116Z,99383.98
2019-03-15T06:13:35.775Z,99387.47
2019-03-15T06:16:09.503Z,99387.84
2019-03-15T06:18:43.378Z,99383.59
2019-03-15T06:21:18.066Z,99388.09
2019-03-15T06:23:51.660Z,99385.83
2019-03-15T06:26:25.557Z,99377.42
2019-03-15T06:29:01.841Z,99382.94
2019-03-15T06:32:16.583Z,99389.59
2019-03-15T06:34:50.232Z,99385.52
2019-03-15T06:37:24.423Z,99389.18
2019-03-15T06:39:58.235Z,99384.52
2019-03-15T06:42:32.209Z,99376.98
2019-03-15T06:45:07.157Z,99372.23
2019-03-15T06:47:42.556Z,99375.23
2019-03-15T06:50:16.418Z,99374.80
2019-03-15T06:52:51.894Z,99382.45
2019-03-15T06:55:26.689Z,99376.37
2019-03-15T06:58:00.703Z,99373.41
2019-03-15T07:00:35.532Z,99369.24
2019-03-15T07:03:09.871Z,99373.23
2019-03-15T07:05:43.596Z,99367.28
2019-03-15T07:08:18.626Z,99355.78
2019-03-15T07:10:52.321Z,99365.05
2019-03-15T07:13:26.463Z,99369.34
2019-03-15T07:16:00.134Z,99369.82
2019-03-15T07:18:34.058Z,99358.64
2019-03-15T07:21:07.871Z,99364.62
2019-03-15T07:23:41.593Z,99356.54
2019-03-15T07:26:16.745Z,99340.77
2019-03-15T07:28:53.812Z,99349.52
2019-03-15T07:31:27.851Z,99353.97
2019-03-15T07:34:03.708Z,99341.82
2019-03-15T07:36:37.664Z,99343.39
2019-03-15T07:39:13.369Z,99335.48
2019-03-15T07:41:47.459Z,99327.80
2019-03-15T07:44:21.276Z,99326.61
2019-03-15T07:46:55.139Z,99337.21
2019-03-15T07:49:30.232Z,99338.98
2019-03-15T07:52:04.187Z,99340.84
2019-03-15T07:54:38.830Z,99331.70
2019-03-15T07:57:13.540Z,99342.48
2019-03-15T07:59:49.077Z,99339.80
2019-03-15T08:02:23.108Z,99336.96
2019-03-15T08:04:57.695Z,99324.47
2019-03-15T08:07:36.359Z,99332.48
2019-03-15T08:10:15.156Z,99329.25
2019-03-15T08:12:50.007Z,99331.77
2019-03-15T08:15:23.896Z,99330.77
2019-03-15T08:17:57.500Z,99328.91
2019-03-15T08:20:31.282Z,99325.58
2019-03-15T08:23:08.596Z,99323.56
2019-03-15T08:25:44.553Z,99323.19
2019-03-15T08:28:18.288Z,99322.55
2019-03-15T08:30:52.167Z,99320.44
2019-03-15T08:33:26.046Z,99319.12
2019-03-15T08:36:01.751Z,99318.31
2019-03-15T08:38:46.730Z,99317.24
2019-03-15T08:41:11.025Z,99317.49
2019-03-15T08:43:46.221Z,99328.57
2019-03-15T08:46:20.317Z,99329.96
2019-03-15T08:48:54.191Z,99325.32
2019-03-15T08:51:28.179Z,99311.02
2019-03-15T08:54:02.196Z,99308.81
2019-03-15T08:56:36.379Z,99314.45
2019-03-15T08:59:10.150Z,99307.57
2019-03-15T09:01:45.138Z,99300.88
2019-03-15T09:04:21.747Z,99309.39
2019-03-15T09:06:56.316Z,99316.20
2019-03-15T09:09:31.666Z,99314.91
2019-03-15T09:12:06.510Z,99319.50
2019-03-15T09:14:40.641Z,99311.77
2019-03-15T09:17:14.419Z,99300.42
2019-03-15T09:19:50.682Z,99305.41
2019-03-15T09:22:24.430Z,99297.55
2019-03-15T09:24:58.094Z,99295.34
2019-03-15T09:27:31.891Z,99293.86
2019-03-15T09:30:07.477Z,99294.23
2019-03-15T09:32:43.106Z,99295.46
2019-03-15T09:35:16.931Z,99291.30
2019-03-15T09:37:51.770Z,99301.54
2019-03-15T09:40:27.081Z,99291.39
2019-03-15T09:43:01.007Z,99282.17
2019-03-15T09:45:37.563Z,99276.25
2019-03-15T09:48:11.439Z,99278.02
2019-03-15T09:50:51.172Z,99282.25
2019-03-15T09:53:20.802Z,99277.47
2019-03-15T09:55:55.221Z,99282.63
2019-03-15T09:58:30.127Z,99270.09
2019-03-15T10:01:04.183Z,99262.05
2019-03-15T10:03:38.404Z,99261.59
2019-03-15T10:06:16.551Z,99230.80
2019-03-15T10:08:47.719Z,99223.77
2019-03-15T10:11:22.495Z,99217.69
2019-03-15T10:13:56.305Z,99213.66
2019-03-15T10:16:30.115Z,99213.08
2019-03-15T10:19:05.455Z,99215.94
2019-03-15T10:21:39.286Z,99220.09
2019-03-15T10:24:15.659Z,99221.95
2019-03-15T10:26:48.868Z,99207.73
2019-03-15T10:29:24.139Z,99203.14
2019-03-15T10:31:57.863Z,99192.25
2019-03-15T10:34:31.889Z,99185.58
2019-03-15T10:37:06.624Z,99174.34
2019-03-15T10:39:41.414Z,99184.23
2019-03-15T10:42:16.188Z,99174.18
2019-03-15T10:44:50.983Z,99172.89
2019-03-15T10:47:26.605Z,99169.31
2019-03-15T10:50:00.673Z,99151.88
2019-03-15T10:52:35.406Z,99145.19
2019-03-15T10:55:09.410Z,99141.20
2019-03-15T10:57:43.259Z,99134.95
2019-03-15T11:00:17.661Z,99135.33
2019-03-15T11:02:51.470Z,99139.37
2019-03-15T11:05:26.174Z,99126.01
2019-03-15T11:07:59.809Z,99123.25
2019-03-15T11:10:33.596Z,99119.08
2019-03-15T11:13:08.010Z,99117.06
2019-03-15T11:15:43.604Z,99105.66
2019-03-15T11:18:17.503Z,99093.31
2019-03-15T11:20:51.771Z,99100.05
2019-03-15T11:23:25.515Z,99105.48
2019-03-15T11:26:12.718Z,99091.31
2019-03-15T11:28:34.950Z,99080.44
2019-03-15T11:31:09.022Z,99066.61
2019-03-15T11:33:42.786Z,99061.78
2019-03-15T11:36:17.820Z,99047.41
2019-03-15T11:38:51.440Z,99041.35
2019-03-15T11:41:27.594Z,99048.82
2019-03-15T11:44:01.225Z,99042.04
2019-03-15T11:46:36.347Z,99037.52
2019-03-15T11:49:10.124Z,99034.02
2019-03-15T11:51:43.930Z,99019.05
2019-03-15T11:54:17.769Z,99008.61
2019-03-15T11:56:53.257Z,99002.86
2019-03-15T11:59:27.409Z,98994.82
2019-03-15T12:02:04.170Z,98991.34
2019-03-15T12:04:37.776Z,98989.67
2019-03-15T12:07:11.547Z,98982.45
2019-03-15T12:09:45.853Z,98987.89
2019-03-15T12:12:21.652Z,98977.19
2019-03-15T12:14:55.193Z,98962.70
2019-03-15T12:17:29.204Z,98960.23
2019-03-15T12:20:03.310Z,98958.94
2019-03-15T12:22:37.333Z,98949.95
2019-03-15T12:25:12.229Z,98951.72
2019-03-15T12:27:47.359Z,98947.84
2019-03-15T12:30:21.389Z,98947.47
2019-03-15T12:32:55.285Z,98945.16
2019-03-15T12:35:29.611Z,98949.73
2019-03-15T12:38:05.022Z,98958.38
2019-03-15T12:40:39.991Z,98951.45
2019-03-15T12:43:13.703Z,98941.70
2019-03-15T12:45:48.385Z,98951.28
2019-03-15T12:48:24.337Z,98938.58
2019-03-15T12:50:58.272Z,98956.02
2019-03-15T12:53:33.020Z,98942.88
2019-03-15T12:56:06.725Z,98953.11
2019-03-15T12:58:40.418Z,98945.74
2019-03-15T13:01:16.294Z,98941.31
2019-03-15T13:03:50.559Z,98931.17
2019-03-15T13:06:26.151Z,98928.54
2019-03-15T13:09:01.290Z,98925.74
2019-03-15T13:11:35.411Z,98916.56
2019-03-15T13:14:09.605Z,98907.34
2019-03-15T13:16:43.377Z,98908.28
2019-03-15T13:19:18.146Z,98904.08
2019-03-15T13:21:52.940Z,98897.77
2019-03-15T13:24:26.699Z,98905.30
2019-03-15T13:27:07.506Z,98896.92
2019-03-15T13:29:39.431Z,98884.56
2019-03-15T13:32:14.326Z,98884.78
2019-03-15T13:34:48.249Z,98889.25
2019-03-15T13:37:24.129Z,98883.11
2019-03-15T13:39:57.840Z,98872.02
2019-03-15T13:42:31.701Z,98852.84
2019-03-15T13:45:06.214Z,98837.38
2019-03-15T13:47:40.234Z,98846.99
2019-03-15T13:50:14.601Z,98852.19
2019-03-15T13:52:48.823Z,98840.09
2019-03-15T13:55:22.687Z,98833.02
2019-03-15T13:57:58.378Z,98839.56
2019-03-15T14:00:34.683Z,98832.20
2019-03-15T14:03:08.775Z,98840.92
2019-03-15T14:05:42.643Z,98848.63
2019-03-15T14:08:16.534Z,98849.21
2019-03-15T14:10:50.475Z,98839.17
2019-03-15T14:13:26.075Z,98845.37
2019-03-15T14:16:01.608Z,98838.61
2019-03-15T14:18:35.778Z,98830.91
2019-03-15T14:21:09.812Z,98837.86
2019-03-15T14:23:45.873Z,98847.08
2019-03-15T14:26:19.886Z,98825.31
2019-03-15T14:28:53.473Z,98837.57
2019-03-15T14:31:28.274Z,98846.53
2019-03-15T14:34:02.533Z,98827.22
2019-03-15T14:36:36.343Z,98817.34
2019-03-15T14:39:11.213Z,98805.73
2019-03-15T14:41:47.019Z,98813.00
2019-03-15T14:44:22.130Z,98806.47
2019-03-15T14:46:55.873Z,98813.08
2019-03-15T14:49:29.475Z,98797.20
2019-03-15T14:52:04.865Z,98811.91
2019-03-15T14:54:38.685Z,98799.48
2019-03-15T14:57:12.970Z,98799.92
2019-03-15T14:59:48.598Z,98798.27
2019-03-15T15:02:22.299Z,98782.80
2019-03-15T15:04:56.110Z,98770.75
2019-03-15T15:07:29.790Z,98767.41
2019-03-15T15:10:05.158Z,98787.16
2019-03-15T15:12:39.130Z,98799.92
2019-03-15T15:15:15.231Z,98815.16
2019-03-15T15:17:50.194Z,98814.54
2019-03-15T15:20:25.533Z,98829.73
2019-03-15T15:22:59.586Z,98825.48
2019-03-15T15:25:33.614Z,98826.92
2019-03-15T15:28:09.291Z,98834.02
2019-03-15T15:30:43.159Z,98840.26
2019-03-15T15:33:16.957Z,98832.95
2019-03-15T15:35:50.961Z,98831.64
2019-03-15T15:38:24.911Z,98842.99
2019-03-15T15:40:58.970Z,98830.17
2019-03-15T15:43:34.587Z,98841.16
2019-03-15T15:46:08.770Z,98846.53
2019-03-15T15:48:43.699Z,98846.89
2019-03-15T15:51:17.894Z,98844.42
2019-03-15T15:53:51.611Z,98840.54
2019-03-15T15:56:25.577Z,98853.89
2019-03-15T15:59:03.065Z,98846.14
2019-03-15T16:01:36.742Z,98857.92
2019-03-15T16:04:10.976Z,98853.71
2019-03-15T16:06:45.596Z,98865.53
2019-03-15T16:10:19.287Z,98864.53
2019-03-15T16:12:50.534Z,98847.91
2019-03-15T16:15:21.760Z,98877.55
2019-03-15T16:17:53.188Z,98885.14
2019-03-15T16:20:24.898Z,98878.75
2019-03-15T16:22:56.079Z,98889.52
2019-03-15T16:25:29.370Z,98892.73
2019-03-15T16:28:00.693Z,98885.42
2019-03-15T16:30:32.188Z,98894.64
2019-03-15T16:33:03.794Z,98875.12
2019-03-15T16:35:34.797Z,98879.23
2019-03-15T16:38:07.946Z,98894.25
2019-03-15T16:40:39.215Z,98906.52
2019-03-15T16:43:12.387Z,98912.78
2019-03-15T16:45:43.781Z,98906.30
2019-03-15T16:48:14.913Z,98914.91
2019-03-15T16:50:46.201Z,98921.91
2019-03-15T16:53:19.323Z,98925.56
2019-03-15T16:55:51.863Z,98930.52
2019-03-15T16:58:23.206Z,98927.09
2019-03-15T17:00:54.550Z,98920.48
2019-03-15T17:03:25.819Z,98937.71
2019-03-15T17:05:58.542Z,98937.59
2019-03-15T17:08:31.838Z,98945.25
2019-03-15T17:11:03.025Z,98946.31
2019-03-15T17:13:34.467Z,98949.02
2019-03-15T17:16:05.805Z,98963.16
2019-03-15T17:18:38.883Z,98958.87
2019-03-15T17:21:10.544Z,98958.85
2019-03-15T17:23:43.483Z,98988.61
2019-03-15T17:26:14.978Z,98974.97
2019-03-15T17:28:57.821Z,98974.27
2019-03-15T17:31:19.305Z,98985.80
2019-03-15T17:33:50.475Z,98988.58
2019-03-15T17:36:21.657Z,98989.63
2019-03-15T17:38:52.869Z,99010.47
2019-03-15T17:41:23.923Z,99016.80
2019-03-15T17:43:55.218Z,99009.02
2019-03-15T17:46:26.614Z,99024.06
2019-03-15T17:49:00.735Z,99042.50
2019-03-15T17:51:34.336Z,99055.31
2019-03-15T17:54:05.663Z,99048.33
2019-03-15T17:56:37.289Z,99054.16
2019-03-15T17:59:12.743Z,99044.64
2019-03-15T18:01:41.878Z,99061.13
2019-03-15T18:04:13.513Z,99060.84
2019-03-15T18:06:44.809Z,99076.45
2019-03-15T18:09:16.417Z,99076.41
2019-03-15T18:11:49.813Z,99081.89
2019-03-15T18:14:23.912Z,99105.80
2019-03-15T18:16:55.129Z,99101.44
2019-03-15T18:19:26.354Z,99100.91
2019-03-15T18:21:57.588Z,99116.84
2019-03-15T18:24:28.764Z,99119.38
2019-03-15T18:27:00.308Z,99136.95
2019-03-15T18:29:32.202Z,99131.23
2019-03-15T18:32:11.171Z,99125.52
2019-03-15T18:34:42.875Z,99132.86
2019-03-15T18:37:14.544Z,99136.42
2019-03-15T18:39:45.779Z,99147.13
2019-03-15T18:42:16.970Z,99142.72
2019-03-15T18:44:48.167Z,99146.76
2019-03-15T18:47:19.899Z,99158.44
2019-03-15T18:49:53.466Z,99165.48
2019-03-15T18:52:28.701Z,99173.29
2019-03-15T18:55:00.411Z,99180.84
2019-03-15T18:57:32.034Z,99175.50
2019-03-15T19:00:03.474Z,99174.95
2019-03-15T19:02:34.866Z,99188.94
2019-03-15T19:05:07.051Z,99188.62
2019-03-15T19:07:40.275Z,99198.63
2019-03-15T19:10:12.366Z,99215.22
2019-03-15T19:12:46.593Z,99212.26
2019-03-15T19:15:17.921Z,99221.30
2019-03-15T19:17:49.208Z,99207.59
2019-03-15T19:20:20.432Z,99213.78
2019-03-15T19:22:51.667Z,99210.80
2019-03-15T19:25:23.111Z,99229.63
2019-03-15T19:27:58.245Z,99222.05
2019-03-15T19:30:30.418Z,99230.15
2019-03-15T19:33:02.221Z,99234.61
2019-03-15T19:35:33.686Z,99246.64
2019-03-15T19:38:06.430Z,99245.07
2019-03-15T19:40:38.216Z,99241.77
2019-03-15T19:43:12.500Z,99240.20
2019-03-15T19:45:44.349Z,99260.84
2019-03-15T19:48:15.757Z,99262.95
2019-03-15T19:50:47.280Z,99248.30
2019-03-15T19:53:19.103Z,99281.33
2019-03-15T19:55:50.396Z,99276.80
2019-03-15T19:58:24.178Z,99278.01
2019-03-15T20:00:55.810Z,99290.48
2019-03-15T20:03:27.166Z,99297.85
2019-03-15T20:06:00.665Z,99304.48
2019-03-15T20:08:32.316Z,99307.52
2019-03-15T20:11:04.326Z,99314.64
2019-03-15T20:13:37.606Z,99329.66
2019-03-15T20:16:09.361Z,99326.98
2019-03-15T20:18:41.089Z,99332.25
2019-03-15T20:21:13.008Z,99335.74
2019-03-15T20:23:46.072Z,99338.80
2019-03-15T20:26:17.354Z,99329.85
2019-03-15T20:28:49.842Z,99327.81
2019-03-15T20:31:21.405Z,99348.84
2019-03-15T20:33:52.927Z,99331.87
2019-03-15T20:36:24.670Z,99355.48
2019-03-15T20:38:57.034Z,99363.95
2019-03-15T20:41:28.983Z,99363.00
2019-03-15T20:44:00.594Z,99363.57
2019-03-15T20:46:35.980Z,99368.73
2019-03-15T20:49:06.661Z,99371.02
2019-03-15T20:51:39.904Z,99365.19
2019-03-15T20:54:12.351Z,99385.11
2019-03-15T20:56:43.939Z,99388.30
2019-03-15T20:59:15.296Z,99389.21
2019-03-15T21:01:49.002Z,99383.36
2019-03-15T21:04:19.910Z,99387.50
2019-03-15T21:06:51.511Z,99399.93
2019-03-15T21:09:23.959Z,99401.11
2019-03-15T21:11:55.930Z,99404.30
2019-03-15T21:14:27.514Z,99392.16
2019-03-15T21:16:58.976Z,99420.06
2019-03-15T21:19:32.016Z,99434.42
2019-03-15T21:22:04.178Z,99438.47
2019-03-15T21:24:35.845Z,99439.93
2019-03-15T21:27:09.542Z,99447.21
2019-03-15T21:29:41.527Z,99448.52
2019-03-15T21:32:13.217Z,99449.31
2019-03-15T21:34:44.554Z,99459.19
2019-03-15T21:37:15.837Z,99455.54
2019-03-15T21:39:49.495Z,99467.74
2019-03-15T21:42:21.355Z,99480.98
2019-03-15T21:44:52.808Z,99477.25
2019-03-15T21:47:24.245Z,99475.78
2019-03-15T21:49:55.505Z,99499.15
2019-03-15T21:52:27.080Z,99492.54
2019-03-15T21:54:58.340Z,99490.21
2019-03-15T21:57:30.695Z,99488.92
2019-03-15T22:00:05.297Z,99490.52
2019-03-15T22:02:39.561Z,99515.13
2019-03-15T22:05:11.024Z,99510.97
2019-03-15T22:07:43.057Z,99510.97
2019-03-15T22:10:15.256Z,99521.49
2019-03-15T22:12:46.477Z,99520.02
2019-03-15T22:15:18.437Z,99526.59
2019-03-15T22:17:49.841Z,99520.54
2019-03-15T22:20:23.183Z,99521.87
2019-03-15T22:22:54.368Z,99515.52
2019-03-15T22:25:25.477Z,99530.84
2019-03-15T22:27:58.732Z,99521.38
2019-03-15T22:30:31.709Z,99517.05
2019-03-15T22:33:03.249Z,99504.17
2019-03-15T22:35:34.946Z,99520.75
2019-03-15T22:38:06.084Z,99520.16
2019-03-15T22:40:38.190Z,99529.12
2019-03-15T22:43:09.803Z,99549.51
2019-03-15T22:45:40.886Z,99538.66
2019-03-15T22:48:11.967Z,99542.39
2019-03-15T22:50:43.063Z,99550.48
2019-03-15T22:53:14.136Z,99549.41
2019-03-15T22:55:45.331Z,99543.20
2019-03-15T22:58:18.272Z,99539.81
2019-03-15T23:00:51.059Z,99544.78
2019-03-15T23:03:22.411Z,99557.53
2019-03-15T23:05:54.581Z,99566.69
2019-03-15T23:08:27.248Z,99572.39
2019-03-15T23:10:58.410Z,99583.75
2019-03-15T23:13:30.010Z,99585.44
2019-03-15T23:16:01.360Z,99566.33
2019-03-15T23:18:32.611Z,99565.16
2019-03-15T23:21:03.919Z,99579.58
2019-03-15T23:23:36.973Z,99585.86
2019-03-15T23:26:08.788Z,99581.23
2019-03-15T23:28:39.920Z,99583.20
2019-03-15T23:31:11.393Z,99591.32
2019-03-15T23:33:42.511Z,99589.19
2019-03-15T23:36:14.794Z,99596.62
2019-03-15T23:38:46.033Z,99602.59
2019-03-15T23:41:17.309Z,99607.17
2019-03-15T23:43:49.730Z,99605.57
2019-03-15T23:46:20.996Z,99605.36
2019-03-15T23:48:52.484Z,99609.60
2019-03-15T23:51:24.040Z,99626.36
2019-03-15T23:53:55.354Z,99613.41
2019-03-15T23:56:26.459Z,99620.66
2019-03-15T23:58:57.720Z,99615.06
